Time;durP1;ratioP1;P1;durP2;ratioP2;P2;SDS_P1;SDS_P2;PMS_P1;PMS_P2;Temp;Humidity;BMP_temperature;BMP_pressure;BME280_temperature;BME280_humidity;BME280_pressure;Samples;Min_cycle;Max_cycle;Signal;HPM_P1;HPM_P2
2022/10/07 00:01:59;;;;;;;8.43;3.23;;;;;;;;;;5095509;28;21006;-72
2022/10/07 00:05:08;;;;;;;7.07;3.20;;;;;;;;;;5098293;27;20440;-71
2022/10/07 00:08:17;;;;;;;3.80;2.93;;;;;;;;;;5095528;27;20464;-71
2022/10/07 00:11:19;;;;;;;5.03;2.93;;;;;;;;;;5093590;28;20452;-71
2022/10/07 00:14:43;;;;;;;6.83;3.20;;;;;;;;;;5096739;27;20837;-71
2022/10/07 00:18:11;;;;;;;6.70;3.67;;;;;;;;;;5096119;28;20841;-71
2022/10/07 00:21:21;;;;;;;5.90;2.90;;;;;;;;;;5098468;28;20471;-71
2022/10/07 00:27:35;;;;;;;6.20;2.83;;;;;;;;;;5092119;28;22545;-72
2022/10/07 00:30:32;;;;;;;4.03;2.53;;;;;;;;;;5095956;27;21108;-71
2022/10/07 00:33:41;;;;;;;5.47;2.90;;;;;;;;;;5080962;27;20559;-72
2022/10/07 00:40:06;;;;;;;5.40;2.70;;;;;;;;;;5099409;27;20832;-71
2022/10/07 00:43:28;;;;;;;6.20;2.70;;;;;;;;;;5096053;28;20441;-72
2022/10/07 00:46:35;;;;;;;6.43;3.00;;;;;;;;;;5095776;28;20849;-71
2022/10/07 00:49:41;;;;;;;4.80;3.00;;;;;;;;;;5100009;28;20461;-71
2022/10/07 00:52:44;;;;;;;3.50;3.20;;;;;;;;;;5098215;27;20552;-71
2022/10/07 00:56:04;;;;;;;6.80;3.13;;;;;;;;;;5095610;27;21074;-72
2022/10/07 00:59:05;;;;;;;4.77;2.87;;;;;;;;;;5098564;27;20499;-71
2022/10/07 01:02:06;;;;;;;5.33;2.60;;;;;;;;;;5093057;27;20457;-72
2022/10/07 01:05:13;;;;;;;5.30;3.40;;;;;;;;;;5095212;28;20432;-72
2022/10/07 01:08:20;;;;;;;;;;;;;;;;;;;;;
2022/10/07 01:11:37;;;;;;;4.80;2.60;;;;;;;;;;5095720;27;20449;-71
2022/10/07 01:14:41;;;;;;;5.00;2.73;;;;;;;;;;5087619;27;20479;-72
2022/10/07 01:21:00;;;;;;;5.03;2.90;;;;;;;;;;5084257;28;20489;-72
2022/10/07 01:24:14;;;;;;;5.60;2.63;;;;;;;;;;5090149;28;21047;-72
2022/10/07 01:27:25;;;;;;;5.73;2.83;;;;;;;;;;5090701;28;20510;-71
2022/10/07 01:30:28;;;;;;;4.60;2.63;;;;;;;;;;5090110;28;20451;-72
2022/10/07 01:34:12;;;;;;;4.43;3.20;;;;;;;;;;5090322;28;20838;-72
2022/10/07 01:40:36;;;;;;;3.57;3.27;;;;;;;;;;5074727;27;20886;-71
2022/10/07 01:43:48;;;;;;;4.80;2.70;;;;;;;;;;5086839;28;21047;-72
2022/10/07 01:50:30;;;;;;;7.00;3.30;;;;;;;;;;5035830;28;20569;-71
2022/10/07 01:57:08;;;;;;;3.93;3.50;;;;;;;;;;5097292;27;20490;-71
2022/10/07 02:00:27;;;;;;;4.93;3.67;;;;;;;;;;5092246;27;20439;-72
2022/10/07 02:03:39;;;;;;;4.77;3.93;;;;;;;;;;5097929;28;20448;-72
2022/10/07 02:06:59;;;;;;;;;;;;;;;;;;;;;
2022/10/07 02:09:58;;;;;;;4.97;4.20;;;;;;;;;;5094928;28;20456;-72
2022/10/07 02:13:29;;;;;;;6.37;3.93;;;;;;;;;;5096256;27;20468;-71
2022/10/07 02:17:02;;;;;;;4.80;3.77;;;;;;;;;;5088974;27;20467;-72
2022/10/07 02:20:24;;;;;;;6.30;3.70;;;;;;;;;;5097663;28;20461;-72
2022/10/07 02:23:35;;;;;;;4.87;3.70;;;;;;;;;;5090271;28;20447;-72
2022/10/07 02:26:57;;;;;;;5.50;4.40;;;;;;;;;;5094473;28;21019;-71
2022/10/07 02:30:04;;;;;;;7.40;4.60;;;;;;;;;;5089648;28;20618;-72
2022/10/07 02:33:02;;;;;;;9.30;4.70;;;;;;;;;;5082738;28;20462;-72
2022/10/07 02:36:10;;;;;;;7.20;4.53;;;;;;;;;;5087709;28;20498;-72
2022/10/07 02:49:18;;;;;;;10.40;4.23;;;;;;;;;;5092971;27;20456;-72
2022/10/07 02:52:13;;;;;;;6.33;4.80;;;;;;;;;;5070133;28;20488;-71
2022/10/07 02:55:14;;;;;;;5.47;4.90;;;;;;;;;;5084780;27;20902;-72
2022/10/07 02:58:06;;;;;;;6.03;4.90;;;;;;;;;;5092255;28;20477;-71
2022/10/07 03:01:10;;;;;;;7.07;4.77;;;;;;;;;;5088901;28;20448;-75
2022/10/07 03:04:24;;;;;;;;;;;;;;;;;;;;;
2022/10/07 03:07:16;;;;;;;6.27;5.17;;;;;;;;;;5087510;28;20495;-73
2022/10/07 03:13:38;;;;;;;5.47;4.87;;;;;;;;;;5091973;28;20467;-73
2022/10/07 03:16:40;;;;;;;6.17;5.27;;;;;;;;;;5095421;28;20526;-73
2022/10/07 03:26:29;;;;;;;7.50;5.40;;;;;;;;;;5092215;28;20499;-73
2022/10/07 03:29:45;;;;;;;9.47;5.70;;;;;;;;;;5088486;28;20453;-75
2022/10/07 03:32:53;;;;;;;5.77;4.70;;;;;;;;;;5093667;28;20457;-74
2022/10/07 03:39:23;;;;;;;5.43;4.83;;;;;;;;;;5077737;28;20917;-74
2022/10/07 03:42:42;;;;;;;7.47;5.43;;;;;;;;;;5079008;28;20452;-74
2022/10/07 03:45:50;;;;;;;11.43;4.90;;;;;;;;;;5083818;28;20871;-73
2022/10/07 03:48:49;;;;;;;7.00;5.20;;;;;;;;;;5090051;28;21169;-73
2022/10/07 03:52:19;;;;;;;4.87;4.47;;;;;;;;;;5084749;28;20456;-73
2022/10/07 03:55:24;;;;;;;7.60;5.17;;;;;;;;;;5089081;28;21434;-74
2022/10/07 03:58:34;;;;;;;5.23;4.50;;;;;;;;;;5090941;28;21069;-73
2022/10/07 04:01:54;;;;;;;6.90;4.10;;;;;;;;;;5088780;28;20460;-74
2022/10/07 04:04:51;;;;;;;7.27;5.00;;;;;;;;;;5095971;28;20440;-73
2022/10/07 04:08:06;;;;;;;5.93;4.17;;;;;;;;;;5093740;27;22620;-75
2022/10/07 04:14:29;;;;;;;7.17;4.60;;;;;;;;;;5088369;28;20571;-74
2022/10/07 04:17:44;;;;;;;7.07;4.70;;;;;;;;;;5092216;28;20479;-75
2022/10/07 04:20:43;;;;;;;6.30;4.80;;;;;;;;;;5095403;27;20455;-73
2022/10/07 04:23:49;;;;;;;8.63;4.57;;;;;;;;;;5094880;27;20485;-74
2022/10/07 04:26:55;;;;;;;6.67;4.10;;;;;;;;;;5093242;28;20490;-73
2022/10/07 04:30:02;;;;;;;7.07;4.20;;;;;;;;;;5087642;28;20463;-77
2022/10/07 04:32:59;;;;;;;4.80;4.40;;;;;;;;;;5088572;28;22301;-74
2022/10/07 04:36:13;;;;;;;6.93;3.97;;;;;;;;;;5086806;28;20557;-73
2022/10/07 04:39:13;;;;;;;6.17;4.30;;;;;;;;;;5090228;27;20473;-73
2022/10/07 04:43:17;;;;;;;7.30;4.60;;;;;;;;;;5087551;27;20448;-73
2022/10/07 04:46:00;;;;;;;9.10;4.10;;;;;;;;;;5089041;27;20479;-74
2022/10/07 04:55:16;;;;;;;5.87;3.80;;;;;;;;;;5086486;28;20496;-74
2022/10/07 04:58:22;;;;;;;8.17;4.60;;;;;;;;;;5079283;28;20991;-74
2022/10/07 05:01:37;;;;;;;5.00;3.77;;;;;;;;;;5094976;27;20444;-73
2022/10/07 05:04:47;;;;;;;6.40;3.63;;;;;;;;;;5090424;27;20453;-74
2022/10/07 05:08:24;;;;;;;10.30;4.10;;;;;;;;;;5066662;28;20480;-74
2022/10/07 05:11:28;;;;;;;10.70;4.00;;;;;;;;;;5087665;27;20967;-74
2022/10/07 05:14:43;;;;;;;8.03;3.80;;;;;;;;;;5082575;27;20464;-74
2022/10/07 05:17:39;;;;;;;5.20;3.50;;;;;;;;;;5080647;27;20528;-74
2022/10/07 05:20:49;;;;;;;9.30;3.70;;;;;;;;;;5075269;28;20501;-74
2022/10/07 05:23:57;;;;;;;6.53;4.20;;;;;;;;;;5081619;27;20463;-74
2022/10/07 05:26:57;;;;;;;6.37;3.80;;;;;;;;;;5073644;27;20475;-74
2022/10/07 05:29:52;;;;;;;5.43;4.00;;;;;;;;;;5091234;27;20459;-75
2022/10/07 05:32:42;;;;;;;8.23;4.30;;;;;;;;;;5077749;28;20462;-73
2022/10/07 05:35:36;;;;;;;6.77;3.70;;;;;;;;;;5078448;27;20487;-73
2022/10/07 05:38:26;;;;;;;5.73;3.53;;;;;;;;;;5075886;27;20558;-73
2022/10/07 05:41:16;;;;;;;5.47;3.93;;;;;;;;;;5085455;27;20452;-74
2022/10/07 05:44:08;;;;;;;6.77;3.70;;;;;;;;;;5073172;27;21391;-74
2022/10/07 05:47:05;;;;;;;7.30;3.60;;;;;;;;;;5075873;27;20476;-74
2022/10/07 05:49:55;;;;;;;10.23;3.70;;;;;;;;;;5083313;27;20472;-75
2022/10/07 05:52:50;;;;;;;18.10;5.30;;;;;;;;;;5062901;27;20520;-75
2022/10/07 05:55:43;;;;;;;22.00;6.20;;;;;;;;;;5095330;27;20557;-74
2022/10/07 05:58:37;;;;;;;16.47;5.30;;;;;;;;;;5083372;28;20478;-74
2022/10/07 06:01:30;;;;;;;24.63;5.50;;;;;;;;;;5085048;27;21140;-74
2022/10/07 06:04:20;;;;;;;18.47;5.80;;;;;;;;;;5071616;28;20453;-74
2022/10/07 06:07:08;;;;;;;8.90;3.80;;;;;;;;;;5076383;27;20476;-75
2022/10/07 06:13:09;;;;;;;5.70;3.73;;;;;;;;;;5089153;27;20535;-74
2022/10/07 06:16:01;;;;;;;6.00;3.33;;;;;;;;;;5080987;27;20495;-75
2022/10/07 06:18:51;;;;;;;15.00;4.83;;;;;;;;;;5079269;27;20487;-75
2022/10/07 06:21:41;;;;;;;15.23;6.27;;;;;;;;;;5078009;27;20436;-75
2022/10/07 06:24:30;;;;;;;20.43;4.70;;;;;;;;;;5082225;27;20448;-74
2022/10/07 06:27:18;;;;;;;10.23;4.97;;;;;;;;;;5086850;27;21937;-75
2022/10/07 06:30:07;;;;;;;6.10;3.40;;;;;;;;;;5076289;28;22149;-74
2022/10/07 06:32:56;;;;;;;53.07;9.83;;;;;;;;;;5081104;27;20486;-74
2022/10/07 06:35:46;;;;;;;13.50;5.00;;;;;;;;;;5089202;28;20481;-74
2022/10/07 06:38:36;;;;;;;12.17;4.57;;;;;;;;;;5083453;27;20622;-76
2022/10/07 06:41:24;;;;;;;8.37;3.80;;;;;;;;;;5085843;27;20449;-74
2022/10/07 06:44:13;;;;;;;7.70;3.73;;;;;;;;;;5090791;27;20460;-74
2022/10/07 06:47:02;;;;;;;6.50;4.93;;;;;;;;;;5079766;28;20475;-74
2022/10/07 06:49:57;;;;;;;7.37;3.60;;;;;;;;;;5089002;27;20464;-75
2022/10/07 06:52:46;;;;;;;4.70;4.00;;;;;;;;;;5089099;27;20464;-75
2022/10/07 06:55:36;;;;;;;5.47;3.67;;;;;;;;;;5085421;27;20514;-75
2022/10/07 06:58:25;;;;;;;10.10;4.60;;;;;;;;;;5087679;27;20472;-75
2022/10/07 07:01:14;;;;;;;5.40;3.60;;;;;;;;;;5085622;27;20459;-74
2022/10/07 07:04:02;;;;;;;8.37;4.17;;;;;;;;;;5085868;27;20468;-74
2022/10/07 07:06:51;;;;;;;9.57;4.10;;;;;;;;;;5094342;28;20548;-74
2022/10/07 07:09:40;;;;;;;6.13;4.30;;;;;;;;;;5088832;27;20446;-74
2022/10/07 07:12:30;;;;;;;8.07;4.27;;;;;;;;;;5097473;28;20444;-75
2022/10/07 07:15:18;;;;;;;6.60;3.80;;;;;;;;;;5086995;28;20467;-74
2022/10/07 07:18:07;;;;;;;7.20;3.90;;;;;;;;;;5083394;28;20468;-74
2022/10/07 07:21:02;;;;;;;9.23;4.43;;;;;;;;;;5084293;28;20448;-74
2022/10/07 07:23:50;;;;;;;7.97;3.87;;;;;;;;;;5087609;28;21031;-74
2022/10/07 07:26:39;;;;;;;11.67;4.20;;;;;;;;;;5095994;28;20496;-75
2022/10/07 07:29:29;;;;;;;10.00;4.33;;;;;;;;;;5110093;28;20462;-74
2022/10/07 07:32:18;;;;;;;6.63;3.80;;;;;;;;;;5108852;28;20443;-74
2022/10/07 07:35:07;;;;;;;8.33;3.77;;;;;;;;;;5094053;28;20480;-74
2022/10/07 07:37:55;;;;;;;6.47;3.27;;;;;;;;;;5086547;27;20472;-74
2022/10/07 07:40:44;;;;;;;10.50;3.60;;;;;;;;;;5094867;27;20949;-74
2022/10/07 07:43:32;;;;;;;9.90;4.20;;;;;;;;;;5089352;27;20459;-74
2022/10/07 07:46:24;;;;;;;5.53;3.60;;;;;;;;;;5087287;27;20479;-75
2022/10/07 07:49:13;;;;;;;6.20;3.10;;;;;;;;;;5089797;27;20595;-74
2022/10/07 07:52:03;;;;;;;8.23;3.50;;;;;;;;;;5094078;28;20789;-74
2022/10/07 07:54:56;;;;;;;9.10;3.43;;;;;;;;;;5089140;27;20463;-74
2022/10/07 07:57:45;;;;;;;6.60;3.23;;;;;;;;;;5075489;27;20471;-74
2022/10/07 08:00:36;;;;;;;5.10;3.03;;;;;;;;;;5084059;28;20545;-74
2022/10/07 08:03:26;;;;;;;9.40;3.27;;;;;;;;;;5084326;28;20561;-75
2022/10/07 08:06:20;;;;;;;4.50;3.17;;;;;;;;;;5076519;27;20595;-74
2022/10/07 08:09:08;;;;;;;5.50;3.67;;;;;;;;;;5082981;27;20452;-74
2022/10/07 08:11:57;;;;;;;6.30;3.33;;;;;;;;;;5083884;27;20447;-73
2022/10/07 08:14:45;;;;;;;7.70;3.40;;;;;;;;;;5076350;27;20467;-76
2022/10/07 08:17:34;;;;;;;6.10;3.57;;;;;;;;;;5087581;27;20480;-74
2022/10/07 08:20:24;;;;;;;6.97;4.10;;;;;;;;;;5084383;27;20738;-74
2022/10/07 08:23:16;;;;;;;8.40;3.90;;;;;;;;;;5087191;27;20944;-74
2022/10/07 08:26:05;;;;;;;9.60;3.40;;;;;;;;;;5077019;27;20464;-74
2022/10/07 08:28:53;;;;;;;10.70;4.07;;;;;;;;;;5077403;27;21849;-75
2022/10/07 08:31:42;;;;;;;5.30;3.60;;;;;;;;;;5086503;27;20580;-74
2022/10/07 08:34:31;;;;;;;7.10;3.03;;;;;;;;;;5082205;27;20810;-74
2022/10/07 08:37:21;;;;;;;5.83;2.70;;;;;;;;;;5079954;27;20515;-74
2022/10/07 08:40:14;;;;;;;5.90;2.90;;;;;;;;;;5087852;27;20535;-74
2022/10/07 08:43:03;;;;;;;9.50;3.70;;;;;;;;;;5087285;27;20444;-74
2022/10/07 08:45:54;;;;;;;4.07;2.40;;;;;;;;;;5094218;27;20548;-75
2022/10/07 08:48:46;;;;;;;7.00;2.50;;;;;;;;;;5085934;27;20491;-74
2022/10/07 08:51:38;;;;;;;6.23;2.50;;;;;;;;;;5089982;27;21236;-74
2022/10/07 08:54:30;;;;;;;8.20;3.47;;;;;;;;;;5085595;27;20448;-74
2022/10/07 08:57:21;;;;;;;5.43;2.10;;;;;;;;;;5084236;27;20486;-74
2022/10/07 09:00:12;;;;;;;6.23;2.40;;;;;;;;;;5083898;27;20484;-74
2022/10/07 09:03:07;;;;;;;4.90;2.13;;;;;;;;;;5096133;27;20505;-74
2022/10/07 09:05:57;;;;;;;4.63;2.17;;;;;;;;;;5093493;27;21182;-74
2022/10/07 09:08:50;;;;;;;7.80;2.50;;;;;;;;;;5095069;27;20472;-74
2022/10/07 09:11:41;;;;;;;7.13;2.43;;;;;;;;;;5092227;27;20440;-74
2022/10/07 09:14:31;;;;;;;5.97;1.90;;;;;;;;;;5092455;27;20456;-74
2022/10/07 09:17:22;;;;;;;5.20;2.67;;;;;;;;;;5089385;27;20480;-74
2022/10/07 09:20:15;;;;;;;5.93;2.30;;;;;;;;;;5093791;27;20452;-77
2022/10/07 09:23:05;;;;;;;6.07;2.37;;;;;;;;;;5090634;27;20465;-75
2022/10/07 09:25:55;;;;;;;8.10;2.37;;;;;;;;;;5086611;27;20483;-74
2022/10/07 09:28:49;;;;;;;6.70;2.17;;;;;;;;;;5093742;27;20819;-74
2022/10/07 09:31:38;;;;;;;6.00;2.60;;;;;;;;;;5087675;27;20451;-74
2022/10/07 09:34:28;;;;;;;8.20;2.43;;;;;;;;;;5094020;27;20467;-74
2022/10/07 09:37:19;;;;;;;5.07;2.30;;;;;;;;;;5097031;27;20472;-74
2022/10/07 09:40:21;;;;;;;6.70;3.00;;;;;;;;;;5080261;27;21580;-74
2022/10/07 09:43:12;;;;;;;5.17;2.30;;;;;;;;;;5096565;28;20455;-74
2022/10/07 09:46:03;;;;;;;5.13;2.23;;;;;;;;;;5095463;28;20561;-75
2022/10/07 09:48:52;;;;;;;6.20;2.20;;;;;;;;;;5085094;28;20472;-74
2022/10/07 09:51:41;;;;;;;6.37;1.93;;;;;;;;;;5091505;27;20532;-74
2022/10/07 09:54:31;;;;;;;5.63;2.00;;;;;;;;;;5097235;28;20449;-75
2022/10/07 09:57:28;;;;;;;4.20;2.57;;;;;;;;;;5095534;27;20475;-74
2022/10/07 10:00:24;;;;;;;5.67;2.40;;;;;;;;;;5094153;28;20452;-74
2022/10/07 10:03:14;;;;;;;5.13;1.83;;;;;;;;;;5097404;27;20459;-76
2022/10/07 10:06:04;;;;;;;5.20;2.63;;;;;;;;;;5086690;28;20480;-74
2022/10/07 10:08:58;;;;;;;6.53;2.10;;;;;;;;;;5086469;27;20476;-73
2022/10/07 10:11:59;;;;;;;6.00;1.90;;;;;;;;;;5095039;27;20458;-73
2022/10/07 10:14:50;;;;;;;5.97;1.70;;;;;;;;;;5090501;27;20451;-74
2022/10/07 10:17:40;;;;;;;4.47;1.90;;;;;;;;;;5096542;27;20475;-74
2022/10/07 10:20:32;;;;;;;7.30;2.40;;;;;;;;;;5090325;27;20459;-74
2022/10/07 10:23:28;;;;;;;4.97;2.17;;;;;;;;;;5090093;28;20979;-73
2022/10/07 10:26:29;;;;;;;8.93;2.50;;;;;;;;;;5091576;27;20475;-74
2022/10/07 10:29:26;;;;;;;4.90;2.57;;;;;;;;;;5095959;28;20998;-73
2022/10/07 10:32:32;;;;;;;6.67;2.23;;;;;;;;;;5092087;27;20982;-74
2022/10/07 10:35:23;;;;;;;4.70;1.83;;;;;;;;;;5087096;28;20471;-73
2022/10/07 10:38:31;;;;;;;7.93;2.30;;;;;;;;;;5085604;27;20476;-74
2022/10/07 10:41:26;;;;;;;3.60;2.10;;;;;;;;;;5088510;27;20466;-74
2022/10/07 10:44:26;;;;;;;3.90;1.80;;;;;;;;;;5088419;27;20468;-74
2022/10/07 10:47:17;;;;;;;6.30;2.30;;;;;;;;;;5092995;27;20483;-73
2022/10/07 10:50:12;;;;;;;7.37;1.90;;;;;;;;;;5095747;28;20478;-74
2022/10/07 10:53:06;;;;;;;4.30;2.03;;;;;;;;;;5095131;27;20451;-73
2022/10/07 10:56:01;;;;;;;8.60;1.83;;;;;;;;;;5092353;28;21463;-74
2022/10/07 10:58:59;;;;;;;6.13;2.00;;;;;;;;;;5088877;28;20484;-73
2022/10/07 11:01:51;;;;;;;6.37;2.37;;;;;;;;;;5096045;28;20458;-73
2022/10/07 11:04:45;;;;;;;7.00;2.43;;;;;;;;;;5092300;27;20981;-74
2022/10/07 11:07:36;;;;;;;7.30;2.30;;;;;;;;;;5087133;28;20476;-73
2022/10/07 11:10:26;;;;;;;5.27;1.60;;;;;;;;;;5090485;28;20436;-73
2022/10/07 11:13:27;;;;;;;4.40;1.60;;;;;;;;;;5091367;28;20451;-73
2022/10/07 11:16:18;;;;;;;3.30;1.70;;;;;;;;;;5091238;28;20471;-73
2022/10/07 11:19:11;;;;;;;5.23;1.63;;;;;;;;;;5092794;28;20496;-74
2022/10/07 11:22:00;;;;;;;3.87;1.80;;;;;;;;;;5096528;28;20460;-74
2022/10/07 11:24:50;;;;;;;5.10;2.00;;;;;;;;;;5093307;28;20467;-74
2022/10/07 11:27:39;;;;;;;3.17;1.60;;;;;;;;;;5092379;28;21167;-74
2022/10/07 11:30:31;;;;;;;6.43;2.17;;;;;;;;;;5090101;28;20449;-75
2022/10/07 11:33:26;;;;;;;3.60;1.63;;;;;;;;;;5095524;28;20452;-74
2022/10/07 11:36:15;;;;;;;5.30;1.97;;;;;;;;;;5095454;28;20494;-74
2022/10/07 11:39:06;;;;;;;4.40;1.67;;;;;;;;;;5098537;28;20488;-72
2022/10/07 11:41:58;;;;;;;4.93;1.60;;;;;;;;;;5096049;28;20960;-73
2022/10/07 11:44:52;;;;;;;4.27;2.17;;;;;;;;;;5093994;28;20458;-75
2022/10/07 11:47:42;;;;;;;4.10;1.70;;;;;;;;;;5086837;28;20461;-75
2022/10/07 11:50:33;;;;;;;5.70;1.60;;;;;;;;;;5087090;28;20979;-75
2022/10/07 11:53:24;;;;;;;8.50;2.00;;;;;;;;;;5092003;28;20449;-75
2022/10/07 11:56:16;;;;;;;7.60;2.37;;;;;;;;;;5092766;28;20475;-75
2022/10/07 11:59:05;;;;;;;5.20;1.90;;;;;;;;;;5093388;28;20844;-75
2022/10/07 12:01:54;;;;;;;5.67;2.30;;;;;;;;;;5094557;28;20452;-75
2022/10/07 12:04:43;;;;;;;7.43;2.30;;;;;;;;;;5090777;28;20452;-75
2022/10/07 12:07:37;;;;;;;6.70;1.70;;;;;;;;;;5078751;28;20863;-76
2022/10/07 12:10:32;;;;;;;5.30;1.90;;;;;;;;;;5089155;28;20453;-75
2022/10/07 12:13:37;;;;;;;5.00;1.87;;;;;;;;;;5083542;28;20448;-74
2022/10/07 12:16:53;;;;;;;5.07;1.90;;;;;;;;;;5083172;28;20475;-74
2022/10/07 12:19:42;;;;;;;3.57;1.97;;;;;;;;;;5078645;28;20488;-76
2022/10/07 12:22:30;;;;;;;3.27;1.93;;;;;;;;;;5090228;28;20456;-73
2022/10/07 12:25:31;;;;;;;4.27;2.00;;;;;;;;;;5095583;27;20464;-78
2022/10/07 12:28:24;;;;;;;3.00;1.50;;;;;;;;;;5089709;27;20471;-77
2022/10/07 12:31:27;;;;;;;5.20;2.00;;;;;;;;;;5084133;28;20457;-73
2022/10/07 12:34:22;;;;;;;5.23;2.03;;;;;;;;;;5082770;27;20942;-74
2022/10/07 12:37:30;;;;;;;4.87;2.20;;;;;;;;;;5085125;28;20864;-75
2022/10/07 12:40:21;;;;;;;3.33;1.87;;;;;;;;;;5085457;27;20456;-74
2022/10/07 12:43:20;;;;;;;3.40;1.80;;;;;;;;;;5086578;27;20532;-74
2022/10/07 12:46:11;;;;;;;4.80;1.87;;;;;;;;;;5087078;27;20471;-73
2022/10/07 12:49:02;;;;;;;2.97;1.57;;;;;;;;;;5094071;28;20468;-73
2022/10/07 12:51:52;;;;;;;4.10;2.00;;;;;;;;;;5090594;28;20562;-73
2022/10/07 12:54:44;;;;;;;3.37;1.97;;;;;;;;;;5088602;28;20455;-75
2022/10/07 12:57:34;;;;;;;4.60;1.60;;;;;;;;;;5081889;27;20485;-74
2022/10/07 13:00:24;;;;;;;4.33;2.17;;;;;;;;;;5085533;28;20449;-75
2022/10/07 13:03:31;;;;;;;3.57;1.70;;;;;;;;;;5081363;28;20463;-75
2022/10/07 13:06:38;;;;;;;4.40;2.00;;;;;;;;;;5082936;27;20482;-75
2022/10/07 13:09:45;;;;;;;2.87;1.77;;;;;;;;;;5079559;28;20453;-75
2022/10/07 13:12:37;;;;;;;4.03;2.10;;;;;;;;;;5083774;27;20504;-74
2022/10/07 13:15:30;;;;;;;3.37;1.77;;;;;;;;;;5079501;28;20491;-75
2022/10/07 13:18:21;;;;;;;3.53;2.07;;;;;;;;;;5077246;28;20482;-74
2022/10/07 13:21:16;;;;;;;4.30;2.10;;;;;;;;;;5078088;27;20539;-75
2022/10/07 13:24:04;;;;;;;3.03;1.60;;;;;;;;;;5078078;28;20565;-75
2022/10/07 13:26:55;;;;;;;3.47;1.77;;;;;;;;;;5068430;28;21342;-75
2022/10/07 13:29:43;;;;;;;4.33;2.00;;;;;;;;;;5078797;27;20533;-74
2022/10/07 13:32:34;;;;;;;3.33;1.97;;;;;;;;;;5076709;28;21016;-75
2022/10/07 13:35:30;;;;;;;6.97;2.13;;;;;;;;;;5083684;27;20471;-74
2022/10/07 13:38:27;;;;;;;4.00;1.90;;;;;;;;;;5069426;28;20483;-73
2022/10/07 13:41:19;;;;;;;4.90;2.50;;;;;;;;;;5072118;28;21121;-75
2022/10/07 13:44:10;;;;;;;7.40;2.27;;;;;;;;;;5091812;28;20440;-75
2022/10/07 13:47:00;;;;;;;4.40;2.40;;;;;;;;;;5091286;28;20523;-75
2022/10/07 13:49:51;;;;;;;7.67;2.10;;;;;;;;;;5090227;28;20461;-75
2022/10/07 13:52:41;;;;;;;4.70;1.80;;;;;;;;;;5093560;28;21081;-75
2022/10/07 13:55:32;;;;;;;4.23;1.70;;;;;;;;;;5095288;28;20468;-74
2022/10/07 13:58:20;;;;;;;2.93;1.70;;;;;;;;;;5088618;27;20503;-76
2022/10/07 14:01:09;;;;;;;2.80;1.90;;;;;;;;;;5092324;28;20535;-75
2022/10/07 14:04:02;;;;;;;4.80;2.10;;;;;;;;;;5090289;27;20487;-75
2022/10/07 14:06:54;;;;;;;2.30;1.80;;;;;;;;;;5088122;27;20472;-75
2022/10/07 14:09:45;;;;;;;5.90;1.90;;;;;;;;;;5089002;28;20452;-74
2022/10/07 14:12:34;;;;;;;3.73;1.53;;;;;;;;;;5090420;28;20817;-74
2022/10/07 14:15:24;;;;;;;4.57;2.10;;;;;;;;;;5090779;27;20475;-74
2022/10/07 14:18:13;;;;;;;6.27;2.30;;;;;;;;;;5091968;28;20526;-75
2022/10/07 14:21:08;;;;;;;4.40;1.80;;;;;;;;;;5088220;27;20448;-74
2022/10/07 14:23:58;;;;;;;4.50;1.90;;;;;;;;;;5091641;28;21192;-74
2022/10/07 14:26:47;;;;;;;6.00;1.90;;;;;;;;;;5087677;28;21013;-74
2022/10/07 14:29:37;;;;;;;4.63;2.07;;;;;;;;;;5093698;27;20455;-75
2022/10/07 14:35:35;;;;;;;5.37;2.10;;;;;;;;;;5088178;28;21110;-74
2022/10/07 14:38:28;;;;;;;5.17;1.97;;;;;;;;;;5090324;28;20500;-74
2022/10/07 14:41:20;;;;;;;4.63;2.00;;;;;;;;;;5090707;27;20460;-74
2022/10/07 14:44:08;;;;;;;6.37;2.53;;;;;;;;;;5089778;27;20460;-74
2022/10/07 14:47:06;;;;;;;6.63;2.10;;;;;;;;;;5085722;28;20468;-74
2022/10/07 14:49:56;;;;;;;4.30;2.23;;;;;;;;;;5085650;28;20892;-74
2022/10/07 14:52:45;;;;;;;5.03;2.17;;;;;;;;;;5088459;27;20962;-74
2022/10/07 14:55:34;;;;;;;5.40;2.00;;;;;;;;;;5089800;28;20480;-73
2022/10/07 14:58:24;;;;;;;5.00;2.20;;;;;;;;;;5087422;28;20479;-73
2022/10/07 15:01:13;;;;;;;7.63;2.30;;;;;;;;;;5082579;28;20449;-73
2022/10/07 15:04:01;;;;;;;4.60;1.87;;;;;;;;;;5083795;28;20460;-73
2022/10/07 15:06:50;;;;;;;5.50;2.20;;;;;;;;;;5083233;27;21059;-73
2022/10/07 15:09:38;;;;;;;6.73;2.27;;;;;;;;;;5088784;28;21018;-74
2022/10/07 15:12:28;;;;;;;4.03;1.70;;;;;;;;;;5084104;28;20452;-74
2022/10/07 15:15:18;;;;;;;6.43;2.20;;;;;;;;;;5085218;28;20472;-74
2022/10/07 15:18:10;;;;;;;4.60;2.60;;;;;;;;;;5082890;28;20484;-74
2022/10/07 15:20:58;;;;;;;5.33;2.33;;;;;;;;;;5084544;28;20491;-74
2022/10/07 15:23:50;;;;;;;3.97;2.00;;;;;;;;;;5088604;28;20463;-74
2022/10/07 15:26:40;;;;;;;4.70;2.07;;;;;;;;;;5086335;28;20472;-74
2022/10/07 15:29:28;;;;;;;5.03;2.00;;;;;;;;;;5085130;28;20445;-74
2022/10/07 15:32:18;;;;;;;5.07;2.20;;;;;;;;;;5090719;28;20468;-73
2022/10/07 15:35:07;;;;;;;4.10;2.17;;;;;;;;;;5092115;28;20561;-74
2022/10/07 15:37:56;;;;;;;7.07;3.30;;;;;;;;;;5090453;28;20479;-73
2022/10/07 15:40:52;;;;;;;6.40;2.30;;;;;;;;;;5086064;28;20480;-74
2022/10/07 15:43:40;;;;;;;4.60;1.97;;;;;;;;;;5088566;28;20455;-74
2022/10/07 15:46:34;;;;;;;8.67;2.43;;;;;;;;;;5088990;28;21031;-73
2022/10/07 15:49:27;;;;;;;6.50;2.87;;;;;;;;;;5090819;28;20446;-73
2022/10/07 15:52:26;;;;;;;5.53;2.57;;;;;;;;;;5093557;28;20823;-73
2022/10/07 15:55:18;;;;;;;8.00;1.97;;;;;;;;;;5091659;28;20471;-73
2022/10/07 15:58:17;;;;;;;4.63;2.17;;;;;;;;;;5087631;27;20472;-73
2022/10/07 16:01:09;;;;;;;6.87;1.97;;;;;;;;;;5095556;27;20973;-74
2022/10/07 16:04:14;;;;;;;5.27;2.27;;;;;;;;;;5096160;28;20479;-73
2022/10/07 16:07:08;;;;;;;4.47;2.27;;;;;;;;;;5092264;28;21672;-73
2022/10/07 16:10:02;;;;;;;4.60;2.17;;;;;;;;;;5086786;28;20451;-73
2022/10/07 16:12:51;;;;;;;7.17;2.53;;;;;;;;;;5096616;28;20461;-73
2022/10/07 16:15:57;;;;;;;5.10;2.33;;;;;;;;;;5094229;28;20845;-72
2022/10/07 16:18:49;;;;;;;6.63;2.37;;;;;;;;;;5095029;28;20630;-75
2022/10/07 16:21:43;;;;;;;6.13;2.63;;;;;;;;;;5088992;28;20561;-73
2022/10/07 16:24:41;;;;;;;7.90;2.30;;;;;;;;;;5100105;27;20453;-73
2022/10/07 16:30:39;;;;;;;7.87;2.47;;;;;;;;;;5095021;28;20481;-73
2022/10/07 16:30:50;;;;;;;6.80;2.20;;;;;;;;;;5093397;28;20464;-74
2022/10/07 16:33:43;;;;;;;7.93;2.90;;;;;;;;;;5099362;28;20456;-73
2022/10/07 16:36:34;;;;;;;7.00;2.63;;;;;;;;;;5094668;28;20522;-73
2022/10/07 16:39:42;;;;;;;7.97;2.80;;;;;;;;;;5097529;28;20453;-73
2022/10/07 16:42:39;;;;;;;12.27;2.80;;;;;;;;;;5095442;28;20466;-75
2022/10/07 16:45:40;;;;;;;4.30;2.60;;;;;;;;;;5092547;28;20547;-74
2022/10/07 16:48:30;;;;;;;8.37;2.90;;;;;;;;;;5092476;27;20480;-72
2022/10/07 16:51:28;;;;;;;5.60;3.07;;;;;;;;;;5096373;27;20476;-72
2022/10/07 16:54:24;;;;;;;6.13;3.20;;;;;;;;;;5099326;28;20461;-72
2022/10/07 16:57:17;;;;;;;7.80;3.33;;;;;;;;;;5090307;28;20529;-74
2022/10/07 17:00:13;;;;;;;8.20;3.07;;;;;;;;;;5100424;27;20472;-73
2022/10/07 17:03:07;;;;;;;6.00;2.97;;;;;;;;;;5092228;27;21463;-73
2022/10/07 17:05:56;;;;;;;5.23;2.70;;;;;;;;;;5100043;28;20468;-73
2022/10/07 17:08:44;;;;;;;6.27;3.20;;;;;;;;;;5093742;27;20465;-73
2022/10/07 17:11:36;;;;;;;5.30;3.63;;;;;;;;;;5098462;27;20454;-73
2022/10/07 17:14:30;;;;;;;8.23;3.57;;;;;;;;;;5086156;28;20452;-73
2022/10/07 17:17:22;;;;;;;3.60;2.60;;;;;;;;;;5085958;27;20479;-73
2022/10/07 17:20:14;;;;;;;3.10;2.10;;;;;;;;;;5095787;28;20492;-73
2022/10/07 17:23:19;;;;;;;7.57;3.00;;;;;;;;;;5095036;27;20834;-73
2022/10/07 17:26:21;;;;;;;4.60;3.20;;;;;;;;;;5086527;28;20487;-74
2022/10/07 17:29:12;;;;;;;7.63;3.10;;;;;;;;;;5085535;28;20548;-73
2022/10/07 17:32:11;;;;;;;4.27;2.20;;;;;;;;;;5091439;27;20849;-74
2022/10/07 17:35:01;;;;;;;6.63;2.73;;;;;;;;;;5078739;27;20883;-74
2022/10/07 17:38:01;;;;;;;5.13;2.43;;;;;;;;;;5087532;28;20480;-73
2022/10/07 17:40:50;;;;;;;4.07;2.40;;;;;;;;;;5097901;27;20479;-72
2022/10/07 17:43:44;;;;;;;7.23;2.80;;;;;;;;;;5095509;27;20463;-72
2022/10/07 17:46:35;;;;;;;5.93;2.87;;;;;;;;;;5088388;27;20617;-73
2022/10/07 17:49:25;;;;;;;7.67;2.30;;;;;;;;;;5095904;27;20460;-74
2022/10/07 17:52:17;;;;;;;5.60;2.60;;;;;;;;;;5083246;28;20469;-78
2022/10/07 17:55:15;;;;;;;3.83;2.30;;;;;;;;;;5091949;27;20967;-74
2022/10/07 17:58:10;;;;;;;5.37;2.47;;;;;;;;;;5070370;27;20490;-77
2022/10/07 18:01:18;;;;;;;7.67;2.80;;;;;;;;;;5089513;28;20475;-76
2022/10/07 18:10:38;;;;;;;4.87;2.73;;;;;;;;;;4940270;28;20873;-74
2022/10/07 18:16:38;;;;;;;5.33;3.00;;;;;;;;;;4938746;28;20473;-74
2022/10/07 18:19:31;;;;;;;5.53;2.70;;;;;;;;;;4928970;29;20468;-73
2022/10/07 18:22:31;;;;;;;8.93;3.43;;;;;;;;;;4927763;29;20514;-72
2022/10/07 18:25:19;;;;;;;6.33;2.70;;;;;;;;;;4932908;28;20468;-73
2022/10/07 18:28:12;;;;;;;4.27;2.47;;;;;;;;;;4925398;29;20538;-73
2022/10/07 18:31:06;;;;;;;6.10;3.00;;;;;;;;;;4917605;29;20607;-72
2022/10/07 18:33:59;;;;;;;4.80;2.63;;;;;;;;;;4927524;29;20472;-73
2022/10/07 18:36:49;;;;;;;3.47;2.87;;;;;;;;;;4916521;29;20487;-74
2022/10/07 18:39:44;;;;;;;5.87;2.70;;;;;;;;;;4926932;29;20460;-72
2022/10/07 18:42:37;;;;;;;5.87;2.80;;;;;;;;;;4931809;29;20490;-73
2022/10/07 18:45:29;;;;;;;6.03;2.70;;;;;;;;;;4927805;29;20475;-73
2022/10/07 18:48:17;;;;;;;6.00;2.90;;;;;;;;;;4929930;29;20492;-72
2022/10/07 18:51:11;;;;;;;5.83;2.90;;;;;;;;;;4926896;29;20452;-73